Terminal Aerodrome Forecast
Issued by NWS Cleveland, OH

Home | Current Version | Previous Version | Text Only | Print | Product List | Glossary Off
Versions: 1 2 3 4 5 6 7 8 9 10 11 12 13 14 15 16 17 18 19 20 21 22 23 24 25 26 27 28 29 30 31 32 33 34 35 36

000
FTUS41 KCLE 220800 AAA
TAFCLE
TAF AMD
KCLE 220836Z 2209/2312 23008KT 6SM -SHRA SCT045 OVC080
      TEMPO 2209/2212 5SM -SHRA BKN025
     FM221200 26011KT 5SM -SHRA BR BKN010 OVC025
     FM221500 30014G20KT P6SM BKN012 OVC025
     FM221800 32020G28KT P6SM BKN025
     FM230100 32012KT P6SM VCSH BKN030=

USA.gov is the U.S. government's official web portal to all federal, state and local government web resources and services.